sensor_id;sensor_type;location;lat;lon;timestamp;P1;durP1;ratioP1;P2;durP2;ratioP2
12792;SDS011;6460;42.684;23.260;2023-11-21T00:17:05;22.43;;;15.77;;
12792;SDS011;6460;42.684;23.260;2023-11-21T00:19:33;20.07;;;14.37;;
12792;SDS011;6460;42.684;23.260;2023-11-21T00:22:01;19.07;;;14.30;;
12792;SDS011;6460;42.684;23.260;2023-11-21T00:24:29;25.30;;;14.40;;
12792;SDS011;6460;42.684;23.260;2023-11-21T00:26:57;24.37;;;16.27;;
12792;SDS011;6460;42.684;23.260;2023-11-21T00:29:25;25.37;;;14.27;;
12792;SDS011;6460;42.684;23.260;2023-11-21T00:31:53;24.47;;;12.77;;
12792;SDS011;6460;42.684;23.260;2023-11-21T00:34:23;27.70;;;14.43;;
12792;SDS011;6460;42.684;23.260;2023-11-21T00:36:51;26.30;;;15.70;;
12792;SDS011;6460;42.684;23.260;2023-11-21T00:39:19;23.53;;;14.00;;
12792;SDS011;6460;42.684;23.260;2023-11-21T00:41:47;20.23;;;13.50;;
12792;SDS011;6460;42.684;23.260;2023-11-21T00:44:14;19.20;;;12.97;;
12792;SDS011;6460;42.684;23.260;2023-11-21T00:46:42;21.57;;;13.03;;
12792;SDS011;6460;42.684;23.260;2023-11-21T00:49:10;21.77;;;13.83;;
12792;SDS011;6460;42.684;23.260;2023-11-21T00:51:40;21.53;;;13.23;;
12792;SDS011;6460;42.684;23.260;2023-11-21T00:54:08;23.30;;;13.83;;
12792;SDS011;6460;42.684;23.260;2023-11-21T00:56:36;23.63;;;13.43;;
12792;SDS011;6460;42.684;23.260;2023-11-21T00:59:05;18.23;;;13.63;;
12792;SDS011;6460;42.684;23.260;2023-11-21T01:01:33;22.03;;;13.83;;
12792;SDS011;6460;42.684;23.260;2023-11-21T01:04:03;20.57;;;13.57;;
12792;SDS011;6460;42.684;23.260;2023-11-21T01:06:32;19.47;;;12.70;;
12792;SDS011;6460;42.684;23.260;2023-11-21T01:09:01;19.20;;;13.53;;
12792;SDS011;6460;42.684;23.260;2023-11-21T01:11:33;20.00;;;14.27;;
12792;SDS011;6460;42.684;23.260;2023-11-21T01:14:02;21.10;;;13.90;;
12792;SDS011;6460;42.684;23.260;2023-11-21T01:16:32;21.07;;;13.70;;
12792;SDS011;6460;42.684;23.260;2023-11-21T01:19:00;23.77;;;13.30;;
12792;SDS011;6460;42.684;23.260;2023-11-21T01:21:28;21.27;;;13.83;;
12792;SDS011;6460;42.684;23.260;2023-11-21T01:23:56;22.10;;;14.13;;
12792;SDS011;6460;42.684;23.260;2023-11-21T01:26:25;24.27;;;14.17;;
12792;SDS011;6460;42.684;23.260;2023-11-21T01:28:53;25.17;;;14.83;;
12792;SDS011;6460;42.684;23.260;2023-11-21T01:31:21;25.53;;;15.10;;
12792;SDS011;6460;42.684;23.260;2023-11-21T01:33:49;23.70;;;14.90;;
12792;SDS011;6460;42.684;23.260;2023-11-21T01:36:17;20.13;;;13.57;;
12792;SDS011;6460;42.684;23.260;2023-11-21T01:38:45;21.60;;;15.03;;
12792;SDS011;6460;42.684;23.260;2023-11-21T01:41:13;20.07;;;13.43;;
12792;SDS011;6460;42.684;23.260;2023-11-21T01:43:43;21.40;;;14.73;;
12792;SDS011;6460;42.684;23.260;2023-11-21T01:46:11;22.77;;;15.20;;
12792;SDS011;6460;42.684;23.260;2023-11-21T01:48:41;18.97;;;13.10;;
12792;SDS011;6460;42.684;23.260;2023-11-21T01:51:10;22.67;;;14.57;;
12792;SDS011;6460;42.684;23.260;2023-11-21T01:53:38;25.97;;;15.07;;
12792;SDS011;6460;42.684;23.260;2023-11-21T01:56:06;25.70;;;15.47;;
12792;SDS011;6460;42.684;23.260;2023-11-21T01:58:35;20.07;;;14.33;;
12792;SDS011;6460;42.684;23.260;2023-11-21T02:01:05;19.97;;;13.70;;
12792;SDS011;6460;42.684;23.260;2023-11-21T02:03:34;19.57;;;13.07;;
12792;SDS011;6460;42.684;23.260;2023-11-21T02:06:02;20.73;;;13.40;;
12792;SDS011;6460;42.684;23.260;2023-11-21T02:08:30;20.70;;;14.27;;
12792;SDS011;6460;42.684;23.260;2023-11-21T02:10:58;21.30;;;13.50;;
12792;SDS011;6460;42.684;23.260;2023-11-21T02:13:28;18.50;;;12.37;;
12792;SDS011;6460;42.684;23.260;2023-11-21T02:15:56;14.93;;;11.57;;
12792;SDS011;6460;42.684;23.260;2023-11-21T02:18:25;17.83;;;12.03;;
12792;SDS011;6460;42.684;23.260;2023-11-21T02:20:55;17.17;;;11.60;;
12792;SDS011;6460;42.684;23.260;2023-11-21T02:23:25;18.30;;;11.80;;
12792;SDS011;6460;42.684;23.260;2023-11-21T02:25:54;21.67;;;13.47;;
12792;SDS011;6460;42.684;23.260;2023-11-21T02:28:21;17.07;;;11.77;;
12792;SDS011;6460;42.684;23.260;2023-11-21T02:30:51;19.63;;;12.30;;
12792;SDS011;6460;42.684;23.260;2023-11-21T02:33:22;22.60;;;12.63;;
12792;SDS011;6460;42.684;23.260;2023-11-21T02:35:50;20.20;;;13.17;;
12792;SDS011;6460;42.684;23.260;2023-11-21T02:38:20;18.10;;;12.90;;
12792;SDS011;6460;42.684;23.260;2023-11-21T02:40:49;18.40;;;11.53;;
12792;SDS011;6460;42.684;23.260;2023-11-21T02:43:17;18.20;;;12.57;;
12792;SDS011;6460;42.684;23.260;2023-11-21T02:45:45;17.07;;;12.17;;
12792;SDS011;6460;42.684;23.260;2023-11-21T02:48:13;17.00;;;11.63;;
12792;SDS011;6460;42.684;23.260;2023-11-21T02:50:41;19.80;;;12.63;;
12792;SDS011;6460;42.684;23.260;2023-11-21T02:53:09;17.63;;;12.10;;
12792;SDS011;6460;42.684;23.260;2023-11-21T02:55:38;21.20;;;12.47;;
12792;SDS011;6460;42.684;23.260;2023-11-21T02:58:07;15.70;;;11.67;;
12792;SDS011;6460;42.684;23.260;2023-11-21T03:00:35;18.90;;;12.57;;
12792;SDS011;6460;42.684;23.260;2023-11-21T03:03:03;18.83;;;12.30;;
12792;SDS011;6460;42.684;23.260;2023-11-21T03:05:31;18.27;;;12.50;;
12792;SDS011;6460;42.684;23.260;2023-11-21T03:08:01;17.00;;;11.83;;
12792;SDS011;6460;42.684;23.260;2023-11-21T03:10:29;17.37;;;13.03;;
12792;SDS011;6460;42.684;23.260;2023-11-21T03:12:57;17.80;;;11.33;;
12792;SDS011;6460;42.684;23.260;2023-11-21T03:15:26;18.50;;;12.03;;
12792;SDS011;6460;42.684;23.260;2023-11-21T03:17:54;18.47;;;11.90;;
12792;SDS011;6460;42.684;23.260;2023-11-21T03:20:22;21.07;;;12.67;;
12792;SDS011;6460;42.684;23.260;2023-11-21T03:22:51;20.63;;;12.27;;
12792;SDS011;6460;42.684;23.260;2023-11-21T03:25:18;23.97;;;13.90;;
12792;SDS011;6460;42.684;23.260;2023-11-21T03:27:49;21.40;;;13.53;;
12792;SDS011;6460;42.684;23.260;2023-11-21T03:30:17;22.13;;;13.73;;
12792;SDS011;6460;42.684;23.260;2023-11-21T03:32:48;18.67;;;13.40;;
12792;SDS011;6460;42.684;23.260;2023-11-21T03:35:16;25.57;;;14.50;;
12792;SDS011;6460;42.684;23.260;2023-11-21T03:37:46;20.07;;;14.37;;
12792;SDS011;6460;42.684;23.260;2023-11-21T03:40:13;20.60;;;14.00;;
12792;SDS011;6460;42.684;23.260;2023-11-21T03:42:40;19.07;;;12.57;;
12792;SDS011;6460;42.684;23.260;2023-11-21T03:45:08;20.77;;;13.83;;
12792;SDS011;6460;42.684;23.260;2023-11-21T03:47:37;22.93;;;15.63;;
12792;SDS011;6460;42.684;23.260;2023-11-21T03:50:07;20.00;;;12.83;;
12792;SDS011;6460;42.684;23.260;2023-11-21T03:52:36;17.20;;;12.03;;
12792;SDS011;6460;42.684;23.260;2023-11-21T03:55:05;15.43;;;11.93;;
12792;SDS011;6460;42.684;23.260;2023-11-21T03:57:33;17.50;;;12.20;;
12792;SDS011;6460;42.684;23.260;2023-11-21T04:00:01;16.23;;;11.83;;
12792;SDS011;6460;42.684;23.260;2023-11-21T04:02:29;17.03;;;12.10;;
12792;SDS011;6460;42.684;23.260;2023-11-21T04:04:58;16.40;;;11.33;;
12792;SDS011;6460;42.684;23.260;2023-11-21T04:07:28;17.00;;;11.53;;
12792;SDS011;6460;42.684;23.260;2023-11-21T04:09:56;16.03;;;12.03;;
12792;SDS011;6460;42.684;23.260;2023-11-21T04:12:24;16.37;;;11.37;;
12792;SDS011;6460;42.684;23.260;2023-11-21T04:14:51;19.20;;;13.10;;
12792;SDS011;6460;42.684;23.260;2023-11-21T04:17:19;17.70;;;12.80;;
12792;SDS011;6460;42.684;23.260;2023-11-21T04:19:47;15.27;;;9.63;;
12792;SDS011;6460;42.684;23.260;2023-11-21T04:22:15;17.47;;;11.30;;
12792;SDS011;6460;42.684;23.260;2023-11-21T04:24:45;16.40;;;11.93;;
12792;SDS011;6460;42.684;23.260;2023-11-21T04:27:13;17.97;;;11.03;;
12792;SDS011;6460;42.684;23.260;2023-11-21T04:29:43;17.47;;;11.03;;
12792;SDS011;6460;42.684;23.260;2023-11-21T04:32:11;18.83;;;11.27;;
12792;SDS011;6460;42.684;23.260;2023-11-21T04:34:39;19.23;;;11.67;;
12792;SDS011;6460;42.684;23.260;2023-11-21T04:37:07;17.87;;;11.43;;
12792;SDS011;6460;42.684;23.260;2023-11-21T04:39:36;20.17;;;13.27;;
12792;SDS011;6460;42.684;23.260;2023-11-21T04:42:06;21.33;;;15.50;;
12792;SDS011;6460;42.684;23.260;2023-11-21T04:44:34;28.57;;;17.93;;
12792;SDS011;6460;42.684;23.260;2023-11-21T04:47:02;22.03;;;16.03;;
12792;SDS011;6460;42.684;23.260;2023-11-21T04:49:30;20.47;;;14.83;;
12792;SDS011;6460;42.684;23.260;2023-11-21T04:51:58;21.50;;;14.87;;
12792;SDS011;6460;42.684;23.260;2023-11-21T04:54:26;22.00;;;13.87;;
12792;SDS011;6460;42.684;23.260;2023-11-21T04:56:55;19.23;;;13.70;;
12792;SDS011;6460;42.684;23.260;2023-11-21T04:59:25;21.33;;;13.23;;
12792;SDS011;6460;42.684;23.260;2023-11-21T05:01:53;21.20;;;13.77;;
12792;SDS011;6460;42.684;23.260;2023-11-21T05:04:22;18.37;;;13.17;;
12792;SDS011;6460;42.684;23.260;2023-11-21T05:06:49;24.53;;;13.67;;
12792;SDS011;6460;42.684;23.260;2023-11-21T05:09:17;20.07;;;13.13;;
12792;SDS011;6460;42.684;23.260;2023-11-21T05:11:47;20.53;;;13.47;;
12792;SDS011;6460;42.684;23.260;2023-11-21T05:14:15;21.77;;;14.33;;
12792;SDS011;6460;42.684;23.260;2023-11-21T05:16:45;24.93;;;16.13;;
12792;SDS011;6460;42.684;23.260;2023-11-21T05:19:13;22.83;;;15.53;;
12792;SDS011;6460;42.684;23.260;2023-11-21T05:21:41;25.83;;;16.07;;
12792;SDS011;6460;42.684;23.260;2023-11-21T05:24:08;26.87;;;15.97;;
12792;SDS011;6460;42.684;23.260;2023-11-21T05:26:36;29.67;;;19.33;;
12792;SDS011;6460;42.684;23.260;2023-11-21T05:29:05;30.13;;;18.90;;
12792;SDS011;6460;42.684;23.260;2023-11-21T05:31:34;25.60;;;17.03;;
12792;SDS011;6460;42.684;23.260;2023-11-21T05:34:03;26.40;;;18.10;;
12792;SDS011;6460;42.684;23.260;2023-11-21T05:36:32;34.10;;;19.07;;
12792;SDS011;6460;42.684;23.260;2023-11-21T05:38:59;28.07;;;18.33;;
12792;SDS011;6460;42.684;23.260;2023-11-21T05:41:29;33.90;;;20.57;;
12792;SDS011;6460;42.684;23.260;2023-11-21T05:43:57;32.27;;;20.43;;
12792;SDS011;6460;42.684;23.260;2023-11-21T05:46:26;35.97;;;20.63;;
12792;SDS011;6460;42.684;23.260;2023-11-21T05:48:54;33.17;;;21.00;;
12792;SDS011;6460;42.684;23.260;2023-11-21T05:51:24;35.20;;;22.07;;
12792;SDS011;6460;42.684;23.260;2023-11-21T05:53:52;33.83;;;21.70;;
12792;SDS011;6460;42.684;23.260;2023-11-21T05:56:20;32.43;;;20.70;;
12792;SDS011;6460;42.684;23.260;2023-11-21T05:58:48;32.90;;;21.47;;
12792;SDS011;6460;42.684;23.260;2023-11-21T06:01:16;35.40;;;20.40;;
12792;SDS011;6460;42.684;23.260;2023-11-21T06:03:44;32.60;;;20.10;;
12792;SDS011;6460;42.684;23.260;2023-11-21T06:06:13;34.30;;;21.53;;
12792;SDS011;6460;42.684;23.260;2023-11-21T06:08:42;35.37;;;21.13;;
12792;SDS011;6460;42.684;23.260;2023-11-21T06:11:10;35.80;;;21.10;;
12792;SDS011;6460;42.684;23.260;2023-11-21T06:13:39;32.30;;;19.83;;
12792;SDS011;6460;42.684;23.260;2023-11-21T06:16:07;30.20;;;18.30;;
12792;SDS011;6460;42.684;23.260;2023-11-21T06:18:35;31.67;;;19.70;;
12792;SDS011;6460;42.684;23.260;2023-11-21T06:21:02;36.77;;;23.57;;
12792;SDS011;6460;42.684;23.260;2023-11-21T06:23:29;33.93;;;22.13;;
12792;SDS011;6460;42.684;23.260;2023-11-21T06:25:58;34.27;;;21.20;;
12792;SDS011;6460;42.684;23.260;2023-11-21T06:28:26;40.03;;;21.87;;
12792;SDS011;6460;42.684;23.260;2023-11-21T06:30:53;31.07;;;19.70;;
12792;SDS011;6460;42.684;23.260;2023-11-21T06:33:19;32.67;;;19.20;;
12792;SDS011;6460;42.684;23.260;2023-11-21T06:35:47;32.67;;;20.57;;
12792;SDS011;6460;42.684;23.260;2023-11-21T06:38:15;32.87;;;22.73;;
12792;SDS011;6460;42.684;23.260;2023-11-21T06:40:43;32.27;;;20.03;;
12792;SDS011;6460;42.684;23.260;2023-11-21T06:43:12;42.60;;;28.33;;
12792;SDS011;6460;42.684;23.260;2023-11-21T06:45:41;44.37;;;30.17;;
12792;SDS011;6460;42.684;23.260;2023-11-21T06:48:09;42.90;;;29.20;;
12792;SDS011;6460;42.684;23.260;2023-11-21T06:50:36;41.83;;;28.77;;
12792;SDS011;6460;42.684;23.260;2023-11-21T06:53:03;43.60;;;28.90;;
12792;SDS011;6460;42.684;23.260;2023-11-21T06:55:32;36.60;;;25.57;;
12792;SDS011;6460;42.684;23.260;2023-11-21T06:58:00;37.83;;;23.20;;
12792;SDS011;6460;42.684;23.260;2023-11-21T07:00:29;32.90;;;21.57;;
12792;SDS011;6460;42.684;23.260;2023-11-21T07:02:57;34.83;;;21.20;;
12792;SDS011;6460;42.684;23.260;2023-11-21T07:05:23;31.20;;;19.40;;
12792;SDS011;6460;42.684;23.260;2023-11-21T07:07:51;27.57;;;19.47;;
12792;SDS011;6460;42.684;23.260;2023-11-21T07:10:19;32.90;;;21.60;;
12792;SDS011;6460;42.684;23.260;2023-11-21T07:12:47;32.77;;;21.00;;
12792;SDS011;6460;42.684;23.260;2023-11-21T07:15:16;28.33;;;20.50;;
12792;SDS011;6460;42.684;23.260;2023-11-21T07:17:46;31.33;;;20.23;;
12792;SDS011;6460;42.684;23.260;2023-11-21T07:20:13;35.57;;;19.97;;
12792;SDS011;6460;42.684;23.260;2023-11-21T07:22:42;35.00;;;20.37;;
12792;SDS011;6460;42.684;23.260;2023-11-21T07:25:10;29.77;;;19.43;;
12792;SDS011;6460;42.684;23.260;2023-11-21T07:27:38;29.40;;;20.87;;
12792;SDS011;6460;42.684;23.260;2023-11-21T07:30:06;27.47;;;19.93;;
12792;SDS011;6460;42.684;23.260;2023-11-21T07:32:35;29.90;;;21.30;;
12792;SDS011;6460;42.684;23.260;2023-11-21T07:35:07;39.53;;;27.57;;
12792;SDS011;6460;42.684;23.260;2023-11-21T07:37:35;32.67;;;20.83;;
12792;SDS011;6460;42.684;23.260;2023-11-21T07:40:03;31.33;;;20.53;;
12792;SDS011;6460;42.684;23.260;2023-11-21T07:42:31;30.70;;;19.80;;
12792;SDS011;6460;42.684;23.260;2023-11-21T07:44:58;31.20;;;21.50;;
12792;SDS011;6460;42.684;23.260;2023-11-21T07:47:25;36.20;;;21.80;;
12792;SDS011;6460;42.684;23.260;2023-11-21T07:49:53;31.03;;;20.93;;
12792;SDS011;6460;42.684;23.260;2023-11-21T07:52:24;34.47;;;22.60;;
12792;SDS011;6460;42.684;23.260;2023-11-21T07:54:50;35.30;;;23.10;;
12792;SDS011;6460;42.684;23.260;2023-11-21T07:57:18;43.53;;;24.77;;
12792;SDS011;6460;42.684;23.260;2023-11-21T07:59:46;31.67;;;22.77;;
12792;SDS011;6460;42.684;23.260;2023-11-21T08:02:13;32.20;;;23.13;;
12792;SDS011;6460;42.684;23.260;2023-11-21T08:04:41;40.00;;;25.27;;
12792;SDS011;6460;42.684;23.260;2023-11-21T08:07:10;34.13;;;22.97;;
12792;SDS011;6460;42.684;23.260;2023-11-21T08:09:39;36.10;;;23.37;;
12792;SDS011;6460;42.684;23.260;2023-11-21T08:12:06;34.47;;;25.00;;
12792;SDS011;6460;42.684;23.260;2023-11-21T08:14:36;38.00;;;24.83;;
12792;SDS011;6460;42.684;23.260;2023-11-21T08:17:04;41.50;;;25.53;;
12792;SDS011;6460;42.684;23.260;2023-11-21T08:19:32;35.77;;;25.80;;
12792;SDS011;6460;42.684;23.260;2023-11-21T08:22:00;42.73;;;29.50;;
12792;SDS011;6460;42.684;23.260;2023-11-21T08:24:28;41.60;;;26.90;;
12792;SDS011;6460;42.684;23.260;2023-11-21T08:27:15;41.27;;;27.30;;
12792;SDS011;6460;42.684;23.260;2023-11-21T08:29:43;47.87;;;29.30;;
12792;SDS011;6460;42.684;23.260;2023-11-21T08:32:11;41.47;;;28.10;;
12792;SDS011;6460;42.684;23.260;2023-11-21T08:34:39;40.97;;;27.20;;
12792;SDS011;6460;42.684;23.260;2023-11-21T08:37:08;39.83;;;26.13;;
12792;SDS011;6460;42.684;23.260;2023-11-21T08:39:36;40.83;;;26.57;;
12792;SDS011;6460;42.684;23.260;2023-11-21T08:42:04;34.97;;;24.83;;
12792;SDS011;6460;42.684;23.260;2023-11-21T08:44:33;36.07;;;23.77;;
12792;SDS011;6460;42.684;23.260;2023-11-21T08:47:01;32.23;;;23.60;;
12792;SDS011;6460;42.684;23.260;2023-11-21T08:49:30;34.50;;;23.33;;
12792;SDS011;6460;42.684;23.260;2023-11-21T08:51:58;32.10;;;22.80;;
12792;SDS011;6460;42.684;23.260;2023-11-21T08:54:26;34.90;;;23.57;;
12792;SDS011;6460;42.684;23.260;2023-11-21T08:56:54;35.00;;;23.20;;
12792;SDS011;6460;42.684;23.260;2023-11-21T08:59:23;34.60;;;23.83;;
12792;SDS011;6460;42.684;23.260;2023-11-21T09:01:53;45.93;;;34.80;;
12792;SDS011;6460;42.684;23.260;2023-11-21T09:04:21;47.93;;;35.27;;
12792;SDS011;6460;42.684;23.260;2023-11-21T09:06:49;41.00;;;30.83;;
12792;SDS011;6460;42.684;23.260;2023-11-21T09:09:17;38.83;;;28.47;;
12792;SDS011;6460;42.684;23.260;2023-11-21T09:11:45;45.53;;;32.17;;
12792;SDS011;6460;42.684;23.260;2023-11-21T09:14:14;49.23;;;34.40;;
12792;SDS011;6460;42.684;23.260;2023-11-21T09:16:43;43.77;;;34.07;;
12792;SDS011;6460;42.684;23.260;2023-11-21T09:19:12;34.53;;;26.27;;
12792;SDS011;6460;42.684;23.260;2023-11-21T09:21:40;37.87;;;25.13;;
12792;SDS011;6460;42.684;23.260;2023-11-21T09:24:07;35.40;;;22.00;;
12792;SDS011;6460;42.684;23.260;2023-11-21T09:26:35;28.87;;;20.27;;
12792;SDS011;6460;42.684;23.260;2023-11-21T09:29:02;34.17;;;23.50;;
12792;SDS011;6460;42.684;23.260;2023-11-21T09:31:29;32.47;;;22.47;;
12792;SDS011;6460;42.684;23.260;2023-11-21T09:33:58;35.97;;;22.57;;
12792;SDS011;6460;42.684;23.260;2023-11-21T09:36:28;36.80;;;25.50;;
12792;SDS011;6460;42.684;23.260;2023-11-21T09:38:56;27.50;;;20.43;;
12792;SDS011;6460;42.684;23.260;2023-11-21T09:41:25;27.30;;;20.57;;
12792;SDS011;6460;42.684;23.260;2023-11-21T09:44:00;27.83;;;20.97;;
12792;SDS011;6460;42.684;23.260;2023-11-21T09:46:33;31.63;;;21.37;;
12792;SDS011;6460;42.684;23.260;2023-11-21T09:49:04;34.73;;;21.77;;
12792;SDS011;6460;42.684;23.260;2023-11-21T09:51:39;35.63;;;21.93;;
12792;SDS011;6460;42.684;23.260;2023-11-21T09:54:10;36.40;;;23.63;;
12792;SDS011;6460;42.684;23.260;2023-11-21T09:56:38;32.97;;;23.73;;
12792;SDS011;6460;42.684;23.260;2023-11-21T09:59:08;33.63;;;23.27;;
12792;SDS011;6460;42.684;23.260;2023-11-21T10:01:41;31.30;;;24.23;;
12792;SDS011;6460;42.684;23.260;2023-11-21T10:04:10;32.83;;;24.40;;
12792;SDS011;6460;42.684;23.260;2023-11-21T10:06:40;23.03;;;18.50;;
12792;SDS011;6460;42.684;23.260;2023-11-21T10:09:08;29.50;;;18.47;;
12792;SDS011;6460;42.684;23.260;2023-11-21T10:11:39;26.50;;;20.40;;
12792;SDS011;6460;42.684;23.260;2023-11-21T10:14:10;28.63;;;21.20;;
12792;SDS011;6460;42.684;23.260;2023-11-21T10:16:40;35.87;;;21.30;;
12792;SDS011;6460;42.684;23.260;2023-11-21T10:19:09;34.37;;;22.43;;
12792;SDS011;6460;42.684;23.260;2023-11-21T10:21:42;35.00;;;24.13;;
12792;SDS011;6460;42.684;23.260;2023-11-21T10:24:10;37.10;;;22.93;;
12792;SDS011;6460;42.684;23.260;2023-11-21T10:26:38;35.00;;;24.57;;
12792;SDS011;6460;42.684;23.260;2023-11-21T10:29:07;34.67;;;25.13;;
12792;SDS011;6460;42.684;23.260;2023-11-21T10:31:38;33.17;;;24.07;;
12792;SDS011;6460;42.684;23.260;2023-11-21T10:34:12;35.53;;;23.00;;
12792;SDS011;6460;42.684;23.260;2023-11-21T10:36:43;31.73;;;20.47;;
12792;SDS011;6460;42.684;23.260;2023-11-21T10:39:13;29.23;;;21.10;;
12792;SDS011;6460;42.684;23.260;2023-11-21T10:41:44;37.83;;;24.73;;
12792;SDS011;6460;42.684;23.260;2023-11-21T10:44:13;35.27;;;25.90;;
12792;SDS011;6460;42.684;23.260;2023-11-21T10:46:46;35.77;;;25.40;;
12792;SDS011;6460;42.684;23.260;2023-11-21T10:49:16;35.13;;;24.63;;
12792;SDS011;6460;42.684;23.260;2023-11-21T10:51:46;36.53;;;25.53;;
12792;SDS011;6460;42.684;23.260;2023-11-21T10:54:19;31.40;;;22.97;;
12792;SDS011;6460;42.684;23.260;2023-11-21T10:56:48;33.00;;;23.03;;
12792;SDS011;6460;42.684;23.260;2023-11-21T10:59:18;35.93;;;23.40;;
12792;SDS011;6460;42.684;23.260;2023-11-21T11:01:50;47.83;;;27.03;;
12792;SDS011;6460;42.684;23.260;2023-11-21T11:04:18;34.37;;;24.80;;
12792;SDS011;6460;42.684;23.260;2023-11-21T11:06:50;37.87;;;25.83;;
12792;SDS011;6460;42.684;23.260;2023-11-21T11:09:21;37.10;;;26.43;;
12792;SDS011;6460;42.684;23.260;2023-11-21T11:11:50;41.70;;;27.87;;
12792;SDS011;6460;42.684;23.260;2023-11-21T11:14:19;38.23;;;25.53;;
12792;SDS011;6460;42.684;23.260;2023-11-21T11:16:50;33.90;;;26.13;;
12792;SDS011;6460;42.684;23.260;2023-11-21T11:19:20;34.77;;;27.70;;
12792;SDS011;6460;42.684;23.260;2023-11-21T11:21:54;35.27;;;26.33;;
12792;SDS011;6460;42.684;23.260;2023-11-21T11:24:40;38.20;;;27.27;;
12792;SDS011;6460;42.684;23.260;2023-11-21T11:27:25;38.57;;;29.70;;
12792;SDS011;6460;42.684;23.260;2023-11-21T11:30:04;40.73;;;29.80;;
12792;SDS011;6460;42.684;23.260;2023-11-21T11:32:43;43.07;;;33.83;;
12792;SDS011;6460;42.684;23.260;2023-11-21T11:35:23;47.67;;;34.83;;
12792;SDS011;6460;42.684;23.260;2023-11-21T11:37:58;48.87;;;34.13;;
12792;SDS011;6460;42.684;23.260;2023-11-21T11:40:38;37.23;;;27.63;;
12792;SDS011;6460;42.684;23.260;2023-11-21T11:43:07;43.53;;;29.40;;
12792;SDS011;6460;42.684;23.260;2023-11-21T11:45:35;44.00;;;32.70;;
12792;SDS011;6460;42.684;23.260;2023-11-21T11:48:07;53.43;;;37.53;;
12792;SDS011;6460;42.684;23.260;2023-11-21T11:50:35;47.30;;;35.00;;
12792;SDS011;6460;42.684;23.260;2023-11-21T11:53:13;46.20;;;33.70;;
12792;SDS011;6460;42.684;23.260;2023-11-21T11:55:43;43.63;;;31.37;;
12792;SDS011;6460;42.684;23.260;2023-11-21T11:58:11;34.67;;;26.70;;
12792;SDS011;6460;42.684;23.260;2023-11-21T12:00:39;27.13;;;20.70;;
12792;SDS011;6460;42.684;23.260;2023-11-21T12:03:10;26.30;;;18.33;;
12792;SDS011;6460;42.684;23.260;2023-11-21T12:05:40;24.30;;;15.63;;
12792;SDS011;6460;42.684;23.260;2023-11-21T12:08:10;25.30;;;18.70;;
12792;SDS011;6460;42.684;23.260;2023-11-21T12:10:40;24.27;;;18.03;;
12792;SDS011;6460;42.684;23.260;2023-11-21T12:13:08;25.57;;;19.33;;
12792;SDS011;6460;42.684;23.260;2023-11-21T12:15:37;33.40;;;21.07;;
12792;SDS011;6460;42.684;23.260;2023-11-21T12:18:06;30.63;;;21.30;;
12792;SDS011;6460;42.684;23.260;2023-11-21T12:20:34;30.53;;;21.53;;
12792;SDS011;6460;42.684;23.260;2023-11-21T12:23:04;31.20;;;23.00;;
12792;SDS011;6460;42.684;23.260;2023-11-21T12:25:35;30.13;;;22.30;;
12792;SDS011;6460;42.684;23.260;2023-11-21T12:28:04;30.77;;;24.13;;
12792;SDS011;6460;42.684;23.260;2023-11-21T12:30:33;29.70;;;23.20;;
12792;SDS011;6460;42.684;23.260;2023-11-21T12:33:03;35.93;;;25.97;;
12792;SDS011;6460;42.684;23.260;2023-11-21T12:35:32;41.63;;;27.20;;
12792;SDS011;6460;42.684;23.260;2023-11-21T12:38:01;33.03;;;21.63;;
12792;SDS011;6460;42.684;23.260;2023-11-21T12:40:29;25.60;;;18.63;;
12792;SDS011;6460;42.684;23.260;2023-11-21T12:42:58;25.83;;;17.57;;
12792;SDS011;6460;42.684;23.260;2023-11-21T12:45:28;24.17;;;19.13;;
12792;SDS011;6460;42.684;23.260;2023-11-21T12:47:59;22.97;;;17.60;;
12792;SDS011;6460;42.684;23.260;2023-11-21T12:50:32;29.37;;;18.27;;
12792;SDS011;6460;42.684;23.260;2023-11-21T12:53:02;24.33;;;16.50;;
12792;SDS011;6460;42.684;23.260;2023-11-21T12:55:31;26.13;;;16.37;;
12792;SDS011;6460;42.684;23.260;2023-11-21T12:58:04;24.43;;;17.80;;
12792;SDS011;6460;42.684;23.260;2023-11-21T13:00:34;24.03;;;17.73;;
12792;SDS011;6460;42.684;23.260;2023-11-21T13:03:03;24.70;;;18.43;;
12792;SDS011;6460;42.684;23.260;2023-11-21T13:05:32;27.47;;;19.97;;
12792;SDS011;6460;42.684;23.260;2023-11-21T13:08:04;26.70;;;19.10;;
12792;SDS011;6460;42.684;23.260;2023-11-21T13:10:33;24.43;;;19.20;;
12792;SDS011;6460;42.684;23.260;2023-11-21T13:13:02;25.80;;;19.03;;
12792;SDS011;6460;42.684;23.260;2023-11-21T13:15:33;32.03;;;19.40;;
12792;SDS011;6460;42.684;23.260;2023-11-21T13:18:01;32.40;;;20.50;;
12792;SDS011;6460;42.684;23.260;2023-11-21T13:20:28;29.03;;;21.07;;
12792;SDS011;6460;42.684;23.260;2023-11-21T13:22:56;24.80;;;19.87;;
12792;SDS011;6460;42.684;23.260;2023-11-21T13:25:24;30.60;;;21.20;;
12792;SDS011;6460;42.684;23.260;2023-11-21T13:27:53;32.37;;;22.10;;
12792;SDS011;6460;42.684;23.260;2023-11-21T13:30:22;27.67;;;20.30;;
12792;SDS011;6460;42.684;23.260;2023-11-21T13:32:52;28.67;;;18.87;;
12792;SDS011;6460;42.684;23.260;2023-11-21T13:35:22;23.87;;;17.80;;
12792;SDS011;6460;42.684;23.260;2023-11-21T13:37:56;24.27;;;18.20;;
12792;SDS011;6460;42.684;23.260;2023-11-21T13:40:29;24.93;;;18.10;;
12792;SDS011;6460;42.684;23.260;2023-11-21T13:42:59;25.03;;;18.00;;
12792;SDS011;6460;42.684;23.260;2023-11-21T13:45:31;25.43;;;18.27;;
12792;SDS011;6460;42.684;23.260;2023-11-21T13:48:02;27.33;;;20.43;;
12792;SDS011;6460;42.684;23.260;2023-11-21T13:50:32;26.17;;;19.20;;
12792;SDS011;6460;42.684;23.260;2023-11-21T13:53:01;21.60;;;17.30;;
12792;SDS011;6460;42.684;23.260;2023-11-21T13:55:36;25.17;;;18.03;;
12792;SDS011;6460;42.684;23.260;2023-11-21T13:58:05;29.17;;;18.97;;
12792;SDS011;6460;42.684;23.260;2023-11-21T14:00:38;27.63;;;19.03;;
12792;SDS011;6460;42.684;23.260;2023-11-21T14:03:10;24.47;;;19.77;;
12792;SDS011;6460;42.684;23.260;2023-11-21T14:05:46;33.27;;;19.07;;
12792;SDS011;6460;42.684;23.260;2023-11-21T14:08:17;28.20;;;20.33;;
12792;SDS011;6460;42.684;23.260;2023-11-21T14:10:47;28.03;;;19.40;;
12792;SDS011;6460;42.684;23.260;2023-11-21T14:13:22;27.90;;;20.10;;
12792;SDS011;6460;42.684;23.260;2023-11-21T14:15:52;27.57;;;20.23;;
12792;SDS011;6460;42.684;23.260;2023-11-21T14:18:24;29.90;;;20.53;;
12792;SDS011;6460;42.684;23.260;2023-11-21T14:21:01;26.20;;;19.70;;
12792;SDS011;6460;42.684;23.260;2023-11-21T14:23:31;31.23;;;24.83;;
12792;SDS011;6460;42.684;23.260;2023-11-21T14:26:01;34.77;;;24.40;;
12792;SDS011;6460;42.684;23.260;2023-11-21T14:28:29;32.13;;;22.77;;
12792;SDS011;6460;42.684;23.260;2023-11-21T14:30:58;31.43;;;21.90;;
12792;SDS011;6460;42.684;23.260;2023-11-21T14:33:25;32.90;;;21.67;;
12792;SDS011;6460;42.684;23.260;2023-11-21T14:35:53;55.80;;;24.73;;
12792;SDS011;6460;42.684;23.260;2023-11-21T14:38:23;40.37;;;21.53;;
12792;SDS011;6460;42.684;23.260;2023-11-21T14:40:50;27.87;;;21.33;;
12792;SDS011;6460;42.684;23.260;2023-11-21T14:43:18;32.40;;;21.80;;
12792;SDS011;6460;42.684;23.260;2023-11-21T14:45:46;32.53;;;21.23;;
12792;SDS011;6460;42.684;23.260;2023-11-21T14:48:16;36.33;;;25.43;;